sensor_id;sensor_type;location;lat;lon;timestamp;P1;durP1;ratioP1;P2;durP2;ratioP2
41275;SDS011;27010;47.718;12.912;2022-12-11T00:00:53;10.80;;;7.00;;
41275;SDS011;27010;47.718;12.912;2022-12-11T00:03:56;9.07;;;6.50;;
41275;SDS011;27010;47.718;12.912;2022-12-11T00:06:58;10.13;;;6.27;;
41275;SDS011;27010;47.718;12.912;2022-12-11T00:10:01;11.73;;;7.17;;
41275;SDS011;27010;47.718;12.912;2022-12-11T00:13:03;12.30;;;6.87;;
41275;SDS011;27010;47.718;12.912;2022-12-11T00:16:06;12.23;;;7.63;;
41275;SDS011;27010;47.718;12.912;2022-12-11T00:19:09;11.20;;;6.90;;
41275;SDS011;27010;47.718;12.912;2022-12-11T00:22:10;13.47;;;7.80;;
41275;SDS011;27010;47.718;12.912;2022-12-11T00:25:12;13.50;;;8.20;;
41275;SDS011;27010;47.718;12.912;2022-12-11T00:28:15;12.67;;;7.40;;
41275;SDS011;27010;47.718;12.912;2022-12-11T00:31:21;13.03;;;8.37;;
41275;SDS011;27010;47.718;12.912;2022-12-11T00:34:24;11.73;;;8.20;;
41275;SDS011;27010;47.718;12.912;2022-12-11T00:37:26;14.83;;;8.47;;
41275;SDS011;27010;47.718;12.912;2022-12-11T00:40:28;15.73;;;9.13;;
41275;SDS011;27010;47.718;12.912;2022-12-11T00:43:30;15.53;;;8.43;;
41275;SDS011;27010;47.718;12.912;2022-12-11T00:46:32;14.10;;;8.27;;
41275;SDS011;27010;47.718;12.912;2022-12-11T00:49:34;14.57;;;9.00;;
41275;SDS011;27010;47.718;12.912;2022-12-11T00:52:36;16.17;;;9.07;;
41275;SDS011;27010;47.718;12.912;2022-12-11T00:55:40;12.93;;;7.60;;
41275;SDS011;27010;47.718;12.912;2022-12-11T00:58:44;13.03;;;7.73;;
41275;SDS011;27010;47.718;12.912;2022-12-11T01:01:47;13.03;;;8.40;;
41275;SDS011;27010;47.718;12.912;2022-12-11T01:04:49;14.87;;;9.40;;
41275;SDS011;27010;47.718;12.912;2022-12-11T01:07:51;13.67;;;8.97;;
41275;SDS011;27010;47.718;12.912;2022-12-11T01:11:00;12.83;;;8.53;;
41275;SDS011;27010;47.718;12.912;2022-12-11T01:14:04;16.93;;;9.47;;
41275;SDS011;27010;47.718;12.912;2022-12-11T01:17:06;13.50;;;8.90;;
41275;SDS011;27010;47.718;12.912;2022-12-11T01:20:08;15.50;;;9.47;;
41275;SDS011;27010;47.718;12.912;2022-12-11T01:23:11;13.47;;;9.10;;
41275;SDS011;27010;47.718;12.912;2022-12-11T01:26:13;15.23;;;9.67;;
41275;SDS011;27010;47.718;12.912;2022-12-11T01:29:16;17.00;;;10.00;;
41275;SDS011;27010;47.718;12.912;2022-12-11T01:32:18;15.93;;;8.67;;
41275;SDS011;27010;47.718;12.912;2022-12-11T01:35:20;17.30;;;10.13;;
41275;SDS011;27010;47.718;12.912;2022-12-11T01:38:22;14.33;;;9.50;;
41275;SDS011;27010;47.718;12.912;2022-12-11T01:41:24;13.57;;;8.97;;
41275;SDS011;27010;47.718;12.912;2022-12-11T01:47:31;15.53;;;9.80;;
41275;SDS011;27010;47.718;12.912;2022-12-11T01:50:35;17.50;;;9.60;;
41275;SDS011;27010;47.718;12.912;2022-12-11T01:53:40;14.30;;;9.00;;
41275;SDS011;27010;47.718;12.912;2022-12-11T01:56:44;16.70;;;10.80;;
41275;SDS011;27010;47.718;12.912;2022-12-11T01:59:47;17.03;;;10.57;;
41275;SDS011;27010;47.718;12.912;2022-12-11T02:02:49;17.63;;;10.90;;
41275;SDS011;27010;47.718;12.912;2022-12-11T02:05:51;17.13;;;11.33;;
41275;SDS011;27010;47.718;12.912;2022-12-11T02:08:54;17.43;;;10.70;;
41275;SDS011;27010;47.718;12.912;2022-12-11T02:15:35;19.27;;;10.93;;
41275;SDS011;27010;47.718;12.912;2022-12-11T02:21:52;22.30;;;12.23;;
41275;SDS011;27010;47.718;12.912;2022-12-11T02:25:08;17.53;;;10.57;;
41275;SDS011;27010;47.718;12.912;2022-12-11T02:31:52;19.63;;;11.17;;
41275;SDS011;27010;47.718;12.912;2022-12-11T02:35:09;17.33;;;10.40;;
41275;SDS011;27010;47.718;12.912;2022-12-11T02:38:24;16.10;;;10.47;;
41275;SDS011;27010;47.718;12.912;2022-12-11T02:41:29;17.97;;;11.00;;
41275;SDS011;27010;47.718;12.912;2022-12-11T02:44:33;18.37;;;10.43;;
41275;SDS011;27010;47.718;12.912;2022-12-11T02:47:36;17.43;;;10.43;;
41275;SDS011;27010;47.718;12.912;2022-12-11T02:50:41;18.87;;;11.73;;
41275;SDS011;27010;47.718;12.912;2022-12-11T02:53:46;19.83;;;10.83;;
41275;SDS011;27010;47.718;12.912;2022-12-11T02:56:53;16.57;;;10.73;;
41275;SDS011;27010;47.718;12.912;2022-12-11T03:00:00;14.83;;;9.37;;
41275;SDS011;27010;47.718;12.912;2022-12-11T03:03:02;16.53;;;9.33;;
41275;SDS011;27010;47.718;12.912;2022-12-11T03:06:05;17.97;;;10.43;;
41275;SDS011;27010;47.718;12.912;2022-12-11T03:09:07;14.77;;;9.13;;
41275;SDS011;27010;47.718;12.912;2022-12-11T03:12:10;17.13;;;10.27;;
41275;SDS011;27010;47.718;12.912;2022-12-11T03:15:15;16.40;;;10.10;;
41275;SDS011;27010;47.718;12.912;2022-12-11T03:19:04;14.43;;;9.53;;
41275;SDS011;27010;47.718;12.912;2022-12-11T03:22:12;16.20;;;9.63;;
41275;SDS011;27010;47.718;12.912;2022-12-11T03:25:19;14.40;;;8.80;;
41275;SDS011;27010;47.718;12.912;2022-12-11T03:28:38;16.93;;;10.20;;
41275;SDS011;27010;47.718;12.912;2022-12-11T03:32:15;15.77;;;10.57;;
41275;SDS011;27010;47.718;12.912;2022-12-11T03:35:26;14.67;;;9.77;;
41275;SDS011;27010;47.718;12.912;2022-12-11T03:38:43;16.83;;;10.47;;
41275;SDS011;27010;47.718;12.912;2022-12-11T03:41:49;16.53;;;10.50;;
41275;SDS011;27010;47.718;12.912;2022-12-11T03:44:52;14.83;;;10.13;;
41275;SDS011;27010;47.718;12.912;2022-12-11T03:47:56;15.57;;;9.63;;
41275;SDS011;27010;47.718;12.912;2022-12-11T03:51:00;14.67;;;8.97;;
41275;SDS011;27010;47.718;12.912;2022-12-11T03:54:05;13.87;;;9.50;;
41275;SDS011;27010;47.718;12.912;2022-12-11T03:57:08;15.73;;;9.67;;
41275;SDS011;27010;47.718;12.912;2022-12-11T04:00:12;14.73;;;9.53;;
41275;SDS011;27010;47.718;12.912;2022-12-11T04:03:16;16.33;;;10.30;;
41275;SDS011;27010;47.718;12.912;2022-12-11T04:06:18;16.20;;;9.77;;
41275;SDS011;27010;47.718;12.912;2022-12-11T04:09:20;16.10;;;9.93;;
41275;SDS011;27010;47.718;12.912;2022-12-11T04:12:22;17.80;;;10.30;;
41275;SDS011;27010;47.718;12.912;2022-12-11T04:15:24;15.37;;;10.10;;
41275;SDS011;27010;47.718;12.912;2022-12-11T04:18:26;16.93;;;10.80;;
41275;SDS011;27010;47.718;12.912;2022-12-11T04:21:48;16.23;;;10.13;;
41275;SDS011;27010;47.718;12.912;2022-12-11T04:25:08;16.40;;;10.40;;
41275;SDS011;27010;47.718;12.912;2022-12-11T04:28:11;16.13;;;11.13;;
41275;SDS011;27010;47.718;12.912;2022-12-11T04:31:14;15.13;;;9.73;;
41275;SDS011;27010;47.718;12.912;2022-12-11T04:34:21;14.53;;;9.30;;
41275;SDS011;27010;47.718;12.912;2022-12-11T04:37:23;16.77;;;10.53;;
41275;SDS011;27010;47.718;12.912;2022-12-11T04:40:25;13.90;;;8.63;;
41275;SDS011;27010;47.718;12.912;2022-12-11T04:43:27;19.20;;;10.40;;
41275;SDS011;27010;47.718;12.912;2022-12-11T04:46:29;16.43;;;9.90;;
41275;SDS011;27010;47.718;12.912;2022-12-11T04:49:32;16.97;;;9.90;;
41275;SDS011;27010;47.718;12.912;2022-12-11T04:52:34;15.43;;;9.60;;
41275;SDS011;27010;47.718;12.912;2022-12-11T04:55:36;14.20;;;8.53;;
41275;SDS011;27010;47.718;12.912;2022-12-11T04:58:41;14.70;;;8.80;;
41275;SDS011;27010;47.718;12.912;2022-12-11T05:01:44;12.37;;;7.57;;
41275;SDS011;27010;47.718;12.912;2022-12-11T05:04:46;13.67;;;7.77;;
41275;SDS011;27010;47.718;12.912;2022-12-11T05:07:48;12.70;;;7.97;;
41275;SDS011;27010;47.718;12.912;2022-12-11T05:10:58;11.37;;;7.33;;
41275;SDS011;27010;47.718;12.912;2022-12-11T05:14:01;11.17;;;7.00;;
41275;SDS011;27010;47.718;12.912;2022-12-11T05:17:03;10.73;;;6.77;;
41275;SDS011;27010;47.718;12.912;2022-12-11T05:20:05;12.13;;;7.60;;
41275;SDS011;27010;47.718;12.912;2022-12-11T05:23:14;14.27;;;7.57;;
41275;SDS011;27010;47.718;12.912;2022-12-11T05:26:17;9.37;;;6.57;;
41275;SDS011;27010;47.718;12.912;2022-12-11T05:29:21;11.87;;;7.40;;
41275;SDS011;27010;47.718;12.912;2022-12-11T05:32:23;9.93;;;6.43;;
41275;SDS011;27010;47.718;12.912;2022-12-11T05:35:25;10.33;;;6.37;;
41275;SDS011;27010;47.718;12.912;2022-12-11T05:38:27;9.97;;;6.60;;
41275;SDS011;27010;47.718;12.912;2022-12-11T05:41:29;13.27;;;6.73;;
41275;SDS011;27010;47.718;12.912;2022-12-11T05:44:33;9.53;;;5.73;;
41275;SDS011;27010;47.718;12.912;2022-12-11T05:47:35;9.47;;;6.07;;
41275;SDS011;27010;47.718;12.912;2022-12-11T05:50:37;8.73;;;6.07;;
41275;SDS011;27010;47.718;12.912;2022-12-11T05:53:39;8.60;;;5.10;;
41275;SDS011;27010;47.718;12.912;2022-12-11T05:56:43;9.07;;;5.23;;
41275;SDS011;27010;47.718;12.912;2022-12-11T05:59:45;9.93;;;5.87;;
41275;SDS011;27010;47.718;12.912;2022-12-11T06:02:47;10.27;;;6.53;;
41275;SDS011;27010;47.718;12.912;2022-12-11T06:05:49;12.70;;;6.50;;
41275;SDS011;27010;47.718;12.912;2022-12-11T06:08:52;13.63;;;6.37;;
41275;SDS011;27010;47.718;12.912;2022-12-11T06:11:57;10.10;;;6.00;;
41275;SDS011;27010;47.718;12.912;2022-12-11T06:14:59;9.40;;;6.00;;
41275;SDS011;27010;47.718;12.912;2022-12-11T06:18:01;9.43;;;5.63;;
41275;SDS011;27010;47.718;12.912;2022-12-11T06:21:36;11.13;;;6.20;;
41275;SDS011;27010;47.718;12.912;2022-12-11T06:24:32;11.10;;;7.10;;
41275;SDS011;27010;47.718;12.912;2022-12-11T06:27:34;12.43;;;7.27;;
41275;SDS011;27010;47.718;12.912;2022-12-11T06:30:36;9.43;;;5.70;;
41275;SDS011;27010;47.718;12.912;2022-12-11T06:33:39;8.97;;;6.37;;
41275;SDS011;27010;47.718;12.912;2022-12-11T06:36:41;11.47;;;7.43;;
41275;SDS011;27010;47.718;12.912;2022-12-11T06:39:43;11.33;;;6.63;;
41275;SDS011;27010;47.718;12.912;2022-12-11T06:42:47;14.47;;;7.80;;
41275;SDS011;27010;47.718;12.912;2022-12-11T06:45:49;11.43;;;7.30;;
41275;SDS011;27010;47.718;12.912;2022-12-11T06:48:51;10.07;;;6.43;;
41275;SDS011;27010;47.718;12.912;2022-12-11T06:51:53;12.70;;;7.37;;
41275;SDS011;27010;47.718;12.912;2022-12-11T06:54:55;11.90;;;7.50;;
41275;SDS011;27010;47.718;12.912;2022-12-11T06:57:57;12.93;;;8.07;;
41275;SDS011;27010;47.718;12.912;2022-12-11T07:01:00;10.67;;;7.03;;
41275;SDS011;27010;47.718;12.912;2022-12-11T07:04:02;11.10;;;7.50;;
41275;SDS011;27010;47.718;12.912;2022-12-11T07:07:05;12.00;;;8.17;;
41275;SDS011;27010;47.718;12.912;2022-12-11T07:10:08;14.40;;;7.83;;
41275;SDS011;27010;47.718;12.912;2022-12-11T07:13:10;12.10;;;7.67;;
41275;SDS011;27010;47.718;12.912;2022-12-11T07:16:12;13.87;;;8.93;;
41275;SDS011;27010;47.718;12.912;2022-12-11T07:19:16;15.17;;;8.57;;
41275;SDS011;27010;47.718;12.912;2022-12-11T07:22:18;14.00;;;8.80;;
41275;SDS011;27010;47.718;12.912;2022-12-11T07:25:20;17.93;;;9.47;;
41275;SDS011;27010;47.718;12.912;2022-12-11T07:28:22;16.67;;;8.93;;
41275;SDS011;27010;47.718;12.912;2022-12-11T07:31:25;16.67;;;9.70;;
41275;SDS011;27010;47.718;12.912;2022-12-11T07:34:28;14.40;;;8.83;;
41275;SDS011;27010;47.718;12.912;2022-12-11T07:37:30;20.73;;;10.60;;
41275;SDS011;27010;47.718;12.912;2022-12-11T07:40:32;16.57;;;10.67;;
41275;SDS011;27010;47.718;12.912;2022-12-11T07:43:39;14.97;;;8.77;;
41275;SDS011;27010;47.718;12.912;2022-12-11T07:46:41;13.93;;;8.30;;
41275;SDS011;27010;47.718;12.912;2022-12-11T07:49:43;14.83;;;9.13;;
41275;SDS011;27010;47.718;12.912;2022-12-11T07:52:45;15.47;;;8.80;;
41275;SDS011;27010;47.718;12.912;2022-12-11T07:55:47;18.43;;;9.27;;
41275;SDS011;27010;47.718;12.912;2022-12-11T07:58:49;16.03;;;8.83;;
41275;SDS011;27010;47.718;12.912;2022-12-11T08:01:52;16.03;;;9.03;;
41275;SDS011;27010;47.718;12.912;2022-12-11T08:04:54;14.60;;;8.83;;
41275;SDS011;27010;47.718;12.912;2022-12-11T08:07:56;13.47;;;7.77;;
41275;SDS011;27010;47.718;12.912;2022-12-11T08:11:02;14.80;;;8.13;;
41275;SDS011;27010;47.718;12.912;2022-12-11T08:14:05;11.43;;;7.50;;
41275;SDS011;27010;47.718;12.912;2022-12-11T08:17:09;11.83;;;7.43;;
41275;SDS011;27010;47.718;12.912;2022-12-11T08:20:11;14.33;;;8.97;;
41275;SDS011;27010;47.718;12.912;2022-12-11T08:23:13;15.03;;;8.90;;
41275;SDS011;27010;47.718;12.912;2022-12-11T08:26:20;15.50;;;9.03;;
41275;SDS011;27010;47.718;12.912;2022-12-11T08:29:24;12.67;;;8.30;;
41275;SDS011;27010;47.718;12.912;2022-12-11T08:32:26;12.87;;;7.93;;
41275;SDS011;27010;47.718;12.912;2022-12-11T08:35:28;11.60;;;7.57;;
41275;SDS011;27010;47.718;12.912;2022-12-11T08:38:30;13.57;;;8.30;;
41275;SDS011;27010;47.718;12.912;2022-12-11T08:41:33;11.13;;;7.30;;
41275;SDS011;27010;47.718;12.912;2022-12-11T08:44:35;13.43;;;7.30;;
41275;SDS011;27010;47.718;12.912;2022-12-11T08:47:37;14.47;;;8.73;;
41275;SDS011;27010;47.718;12.912;2022-12-11T08:50:39;14.63;;;9.07;;
41275;SDS011;27010;47.718;12.912;2022-12-11T08:53:41;13.77;;;8.33;;
41275;SDS011;27010;47.718;12.912;2022-12-11T08:56:44;15.77;;;8.80;;
41275;SDS011;27010;47.718;12.912;2022-12-11T08:59:46;14.63;;;8.10;;
41275;SDS011;27010;47.718;12.912;2022-12-11T09:02:48;12.50;;;7.73;;
41275;SDS011;27010;47.718;12.912;2022-12-11T09:05:50;12.37;;;7.80;;
41275;SDS011;27010;47.718;12.912;2022-12-11T09:08:53;11.53;;;7.27;;
41275;SDS011;27010;47.718;12.912;2022-12-11T09:11:57;9.80;;;6.53;;
41275;SDS011;27010;47.718;12.912;2022-12-11T09:14:59;12.23;;;7.33;;
41275;SDS011;27010;47.718;12.912;2022-12-11T09:18:01;12.43;;;7.80;;
41275;SDS011;27010;47.718;12.912;2022-12-11T09:21:07;11.33;;;6.93;;
41275;SDS011;27010;47.718;12.912;2022-12-11T09:24:12;10.70;;;7.67;;
41275;SDS011;27010;47.718;12.912;2022-12-11T09:27:14;11.67;;;7.43;;
41275;SDS011;27010;47.718;12.912;2022-12-11T09:30:16;11.73;;;6.53;;
41275;SDS011;27010;47.718;12.912;2022-12-11T09:33:18;11.63;;;7.33;;
41275;SDS011;27010;47.718;12.912;2022-12-11T09:36:20;9.37;;;6.13;;
41275;SDS011;27010;47.718;12.912;2022-12-11T09:39:22;9.53;;;6.10;;
41275;SDS011;27010;47.718;12.912;2022-12-11T09:42:26;10.07;;;7.10;;
41275;SDS011;27010;47.718;12.912;2022-12-11T09:46:04;12.47;;;7.83;;
41275;SDS011;27010;47.718;12.912;2022-12-11T09:49:20;12.40;;;7.43;;
41275;SDS011;27010;47.718;12.912;2022-12-11T09:53:01;12.63;;;8.50;;
41275;SDS011;27010;47.718;12.912;2022-12-11T10:10:36;13.33;;;8.40;;
41275;SDS011;27010;47.718;12.912;2022-12-11T10:13:53;11.67;;;7.23;;
41275;SDS011;27010;47.718;12.912;2022-12-11T10:17:35;8.57;;;5.93;;
41275;SDS011;27010;47.718;12.912;2022-12-11T10:20:33;10.90;;;6.30;;
41275;SDS011;27010;47.718;12.912;2022-12-11T10:23:44;9.00;;;6.13;;
41275;SDS011;27010;47.718;12.912;2022-12-11T10:26:50;7.90;;;5.33;;
41275;SDS011;27010;47.718;12.912;2022-12-11T10:30:01;12.00;;;5.97;;
41275;SDS011;27010;47.718;12.912;2022-12-11T10:36:31;9.47;;;6.20;;
41275;SDS011;27010;47.718;12.912;2022-12-11T10:39:36;10.03;;;5.90;;
41275;SDS011;27010;47.718;12.912;2022-12-11T10:42:38;9.37;;;5.77;;
41275;SDS011;27010;47.718;12.912;2022-12-11T10:45:52;9.53;;;6.47;;
41275;SDS011;27010;47.718;12.912;2022-12-11T10:48:58;11.63;;;7.00;;
41275;SDS011;27010;47.718;12.912;2022-12-11T10:52:01;11.37;;;7.27;;
41275;SDS011;27010;47.718;12.912;2022-12-11T10:58:27;14.47;;;8.40;;
41275;SDS011;27010;47.718;12.912;2022-12-11T11:01:34;12.47;;;7.90;;
41275;SDS011;27010;47.718;12.912;2022-12-11T11:04:37;9.67;;;6.70;;
41275;SDS011;27010;47.718;12.912;2022-12-11T11:07:39;8.03;;;5.30;;
41275;SDS011;27010;47.718;12.912;2022-12-11T11:10:55;7.73;;;5.37;;
41275;SDS011;27010;47.718;12.912;2022-12-11T11:14:17;8.37;;;5.80;;
41275;SDS011;27010;47.718;12.912;2022-12-11T11:17:20;9.53;;;6.57;;
41275;SDS011;27010;47.718;12.912;2022-12-11T11:20:26;10.37;;;6.63;;
41275;SDS011;27010;47.718;12.912;2022-12-11T11:23:29;8.83;;;5.67;;
41275;SDS011;27010;47.718;12.912;2022-12-11T11:26:33;6.67;;;4.40;;
41275;SDS011;27010;47.718;12.912;2022-12-11T11:29:58;5.13;;;3.87;;
41275;SDS011;27010;47.718;12.912;2022-12-11T11:33:03;7.17;;;4.50;;
41275;SDS011;27010;47.718;12.912;2022-12-11T11:36:16;6.60;;;4.47;;
41275;SDS011;27010;47.718;12.912;2022-12-11T11:42:36;8.53;;;5.17;;
41275;SDS011;27010;47.718;12.912;2022-12-11T11:45:42;7.27;;;5.07;;
41275;SDS011;27010;47.718;12.912;2022-12-11T11:49:06;8.47;;;5.37;;
41275;SDS011;27010;47.718;12.912;2022-12-11T11:52:14;8.27;;;4.87;;
41275;SDS011;27010;47.718;12.912;2022-12-11T11:59:14;12.73;;;7.57;;
41275;SDS011;27010;47.718;12.912;2022-12-11T12:02:21;6.20;;;4.17;;
41275;SDS011;27010;47.718;12.912;2022-12-11T12:05:26;5.57;;;4.13;;
41275;SDS011;27010;47.718;12.912;2022-12-11T12:08:51;6.07;;;3.93;;
41275;SDS011;27010;47.718;12.912;2022-12-11T12:15:55;15.47;;;9.37;;
41275;SDS011;27010;47.718;12.912;2022-12-11T12:19:06;6.37;;;3.83;;
41275;SDS011;27010;47.718;12.912;2022-12-11T12:25:48;7.33;;;4.63;;
41275;SDS011;27010;47.718;12.912;2022-12-11T12:29:08;6.97;;;4.20;;
41275;SDS011;27010;47.718;12.912;2022-12-11T12:32:40;6.30;;;4.03;;
41275;SDS011;27010;47.718;12.912;2022-12-11T12:35:55;5.70;;;3.27;;
41275;SDS011;27010;47.718;12.912;2022-12-11T12:39:26;6.00;;;3.93;;
41275;SDS011;27010;47.718;12.912;2022-12-11T12:49:39;7.17;;;3.87;;
41275;SDS011;27010;47.718;12.912;2022-12-11T12:52:42;5.87;;;4.00;;
41275;SDS011;27010;47.718;12.912;2022-12-11T12:55:45;5.63;;;3.70;;
41275;SDS011;27010;47.718;12.912;2022-12-11T12:58:48;8.03;;;4.70;;
41275;SDS011;27010;47.718;12.912;2022-12-11T13:02:00;6.17;;;4.27;;
41275;SDS011;27010;47.718;12.912;2022-12-11T13:05:17;6.90;;;4.40;;
41275;SDS011;27010;47.718;12.912;2022-12-11T13:08:24;5.17;;;3.67;;
41275;SDS011;27010;47.718;12.912;2022-12-11T13:11:32;5.40;;;4.57;;
41275;SDS011;27010;47.718;12.912;2022-12-11T13:14:35;6.40;;;4.50;;
41275;SDS011;27010;47.718;12.912;2022-12-11T13:17:37;6.67;;;4.77;;
41275;SDS011;27010;47.718;12.912;2022-12-11T13:20:45;11.53;;;5.90;;
41275;SDS011;27010;47.718;12.912;2022-12-11T13:23:52;7.67;;;4.97;;
41275;SDS011;27010;47.718;12.912;2022-12-11T13:26:55;6.87;;;4.90;;
41275;SDS011;27010;47.718;12.912;2022-12-11T13:33:14;6.47;;;4.40;;
41275;SDS011;27010;47.718;12.912;2022-12-11T13:39:26;9.90;;;5.60;;
41275;SDS011;27010;47.718;12.912;2022-12-11T13:42:31;10.10;;;5.30;;
41275;SDS011;27010;47.718;12.912;2022-12-11T13:45:45;11.37;;;5.80;;
41275;SDS011;27010;47.718;12.912;2022-12-11T13:48:51;7.53;;;5.10;;
41275;SDS011;27010;47.718;12.912;2022-12-11T13:52:01;7.60;;;4.17;;
41275;SDS011;27010;47.718;12.912;2022-12-11T13:55:16;8.17;;;4.93;;
41275;SDS011;27010;47.718;12.912;2022-12-11T13:58:24;7.93;;;5.00;;
41275;SDS011;27010;47.718;12.912;2022-12-11T14:01:28;6.60;;;4.10;;
41275;SDS011;27010;47.718;12.912;2022-12-11T14:04:32;6.70;;;4.07;;
41275;SDS011;27010;47.718;12.912;2022-12-11T14:07:36;6.03;;;4.43;;
41275;SDS011;27010;47.718;12.912;2022-12-11T14:10:41;7.17;;;4.37;;
41275;SDS011;27010;47.718;12.912;2022-12-11T14:13:43;6.67;;;4.17;;
41275;SDS011;27010;47.718;12.912;2022-12-11T14:16:47;7.33;;;5.40;;
41275;SDS011;27010;47.718;12.912;2022-12-11T14:19:51;7.33;;;5.33;;
41275;SDS011;27010;47.718;12.912;2022-12-11T14:23:04;6.97;;;4.37;;
41275;SDS011;27010;47.718;12.912;2022-12-11T14:26:17;6.87;;;4.13;;
41275;SDS011;27010;47.718;12.912;2022-12-11T14:29:28;7.13;;;4.10;;
41275;SDS011;27010;47.718;12.912;2022-12-11T14:32:36;7.53;;;4.63;;
41275;SDS011;27010;47.718;12.912;2022-12-11T14:35:44;6.47;;;4.07;;
41275;SDS011;27010;47.718;12.912;2022-12-11T14:38:58;8.60;;;6.00;;
41275;SDS011;27010;47.718;12.912;2022-12-11T14:42:04;9.00;;;4.93;;
41275;SDS011;27010;47.718;12.912;2022-12-11T14:48:26;8.50;;;5.47;;
41275;SDS011;27010;47.718;12.912;2022-12-11T14:51:33;10.97;;;6.60;;
41275;SDS011;27010;47.718;12.912;2022-12-11T14:54:37;10.73;;;6.50;;
41275;SDS011;27010;47.718;12.912;2022-12-11T14:57:43;22.63;;;12.87;;
41275;SDS011;27010;47.718;12.912;2022-12-11T15:01:00;17.53;;;10.80;;
41275;SDS011;27010;47.718;12.912;2022-12-11T15:07:18;12.13;;;8.20;;
41275;SDS011;27010;47.718;12.912;2022-12-11T15:10:23;15.43;;;8.63;;
41275;SDS011;27010;47.718;12.912;2022-12-11T15:13:38;41.77;;;20.97;;
41275;SDS011;27010;47.718;12.912;2022-12-11T15:16:57;55.20;;;27.47;;
41275;SDS011;27010;47.718;12.912;2022-12-11T15:20:04;17.83;;;9.10;;
41275;SDS011;27010;47.718;12.912;2022-12-11T15:23:12;16.43;;;9.90;;
41275;SDS011;27010;47.718;12.912;2022-12-11T15:26:20;14.03;;;8.37;;
41275;SDS011;27010;47.718;12.912;2022-12-11T15:29:38;12.40;;;7.87;;
41275;SDS011;27010;47.718;12.912;2022-12-11T15:32:41;12.37;;;7.40;;
41275;SDS011;27010;47.718;12.912;2022-12-11T15:35:56;10.53;;;6.97;;
41275;SDS011;27010;47.718;12.912;2022-12-11T15:39:00;11.87;;;7.20;;
41275;SDS011;27010;47.718;12.912;2022-12-11T15:42:06;11.33;;;7.13;;
41275;SDS011;27010;47.718;12.912;2022-12-11T15:45:15;10.40;;;7.17;;
41275;SDS011;27010;47.718;12.912;2022-12-11T15:48:21;8.63;;;6.50;;
41275;SDS011;27010;47.718;12.912;2022-12-11T15:51:24;9.97;;;6.40;;
41275;SDS011;27010;47.718;12.912;2022-12-11T15:54:28;7.27;;;5.10;;
41275;SDS011;27010;47.718;12.912;2022-12-11T15:57:30;8.27;;;6.33;;
41275;SDS011;27010;47.718;12.912;2022-12-11T16:00:33;9.40;;;6.17;;
41275;SDS011;27010;47.718;12.912;2022-12-11T16:03:35;8.40;;;5.87;;
41275;SDS011;27010;47.718;12.912;2022-12-11T16:06:38;10.23;;;6.80;;
41275;SDS011;27010;47.718;12.912;2022-12-11T16:09:46;8.30;;;5.93;;
41275;SDS011;27010;47.718;12.912;2022-12-11T16:12:50;9.47;;;5.37;;
41275;SDS011;27010;47.718;12.912;2022-12-11T16:15:56;8.17;;;5.60;;
41275;SDS011;27010;47.718;12.912;2022-12-11T16:18:58;7.60;;;5.80;;
41275;SDS011;27010;47.718;12.912;2022-12-11T16:22:01;13.10;;;7.60;;
41275;SDS011;27010;47.718;12.912;2022-12-11T16:25:04;8.93;;;6.93;;
41275;SDS011;27010;47.718;12.912;2022-12-11T16:28:07;6.80;;;5.33;;
41275;SDS011;27010;47.718;12.912;2022-12-11T16:31:13;9.57;;;6.50;;
41275;SDS011;27010;47.718;12.912;2022-12-11T16:34:16;9.40;;;6.43;;
41275;SDS011;27010;47.718;12.912;2022-12-11T16:37:18;9.20;;;6.33;;
41275;SDS011;27010;47.718;12.912;2022-12-11T16:40:21;9.80;;;6.37;;
41275;SDS011;27010;47.718;12.912;2022-12-11T16:43:24;7.80;;;5.37;;
41275;SDS011;27010;47.718;12.912;2022-12-11T16:46:26;10.80;;;6.67;;
41275;SDS011;27010;47.718;12.912;2022-12-11T16:49:29;6.23;;;4.37;;
41275;SDS011;27010;47.718;12.912;2022-12-11T16:52:31;6.37;;;3.83;;
41275;SDS011;27010;47.718;12.912;2022-12-11T16:55:34;6.77;;;4.07;;
41275;SDS011;27010;47.718;12.912;2022-12-11T16:58:36;7.07;;;4.57;;
41275;SDS011;27010;47.718;12.912;2022-12-11T17:01:40;6.30;;;4.33;;
41275;SDS011;27010;47.718;12.912;2022-12-11T17:04:43;7.90;;;5.13;;
41275;SDS011;27010;47.718;12.912;2022-12-11T17:07:54;7.17;;;4.40;;
41275;SDS011;27010;47.718;12.912;2022-12-11T17:10:56;7.77;;;5.90;;
41275;SDS011;27010;47.718;12.912;2022-12-11T17:13:58;9.83;;;6.70;;
41275;SDS011;27010;47.718;12.912;2022-12-11T17:17:00;7.27;;;4.70;;
41275;SDS011;27010;47.718;12.912;2022-12-11T17:20:07;5.83;;;4.23;;
41275;SDS011;27010;47.718;12.912;2022-12-11T17:23:11;6.50;;;4.50;;
41275;SDS011;27010;47.718;12.912;2022-12-11T17:26:14;5.30;;;3.73;;
41275;SDS011;27010;47.718;12.912;2022-12-11T17:29:16;6.23;;;4.10;;
41275;SDS011;27010;47.718;12.912;2022-12-11T17:32:18;6.00;;;4.03;;
41275;SDS011;27010;47.718;12.912;2022-12-11T17:35:20;6.17;;;4.20;;
41275;SDS011;27010;47.718;12.912;2022-12-11T17:38:23;8.97;;;4.10;;
41275;SDS011;27010;47.718;12.912;2022-12-11T17:41:25;5.77;;;4.03;;
41275;SDS011;27010;47.718;12.912;2022-12-11T17:44:27;5.70;;;3.80;;
41275;SDS011;27010;47.718;12.912;2022-12-11T17:47:31;5.50;;;3.97;;
41275;SDS011;27010;47.718;12.912;2022-12-11T17:50:38;8.27;;;4.73;;
41275;SDS011;27010;47.718;12.912;2022-12-11T17:53:43;6.43;;;4.43;;
41275;SDS011;27010;47.718;12.912;2022-12-11T17:56:45;7.50;;;5.23;;
41275;SDS011;27010;47.718;12.912;2022-12-11T17:59:47;11.37;;;5.73;;
41275;SDS011;27010;47.718;12.912;2022-12-11T18:02:50;7.20;;;4.10;;
41275;SDS011;27010;47.718;12.912;2022-12-11T18:05:55;13.40;;;7.27;;
41275;SDS011;27010;47.718;12.912;2022-12-11T18:08:59;11.97;;;7.07;;
41275;SDS011;27010;47.718;12.912;2022-12-11T18:12:04;10.37;;;6.47;;
41275;SDS011;27010;47.718;12.912;2022-12-11T18:15:07;14.63;;;9.47;;
41275;SDS011;27010;47.718;12.912;2022-12-11T18:18:13;18.07;;;10.97;;
41275;SDS011;27010;47.718;12.912;2022-12-11T18:21:17;10.00;;;7.43;;
41275;SDS011;27010;47.718;12.912;2022-12-11T18:24:22;9.50;;;7.03;;
41275;SDS011;27010;47.718;12.912;2022-12-11T18:27:32;4.67;;;3.20;;
41275;SDS011;27010;47.718;12.912;2022-12-11T18:30:33;7.30;;;4.00;;
41275;SDS011;27010;47.718;12.912;2022-12-11T18:33:37;4.87;;;3.50;;
41275;SDS011;27010;47.718;12.912;2022-12-11T18:36:41;5.80;;;3.70;;
41275;SDS011;27010;47.718;12.912;2022-12-11T18:39:43;6.60;;;3.37;;
41275;SDS011;27010;47.718;12.912;2022-12-11T18:42:47;6.40;;;3.70;;
41275;SDS011;27010;47.718;12.912;2022-12-11T18:45:50;4.70;;;3.60;;
41275;SDS011;27010;47.718;12.912;2022-12-11T18:48:52;6.47;;;3.97;;
41275;SDS011;27010;47.718;12.912;2022-12-11T18:51:54;6.20;;;4.00;;
41275;SDS011;27010;47.718;12.912;2022-12-11T18:54:57;5.63;;;3.27;;
41275;SDS011;27010;47.718;12.912;2022-12-11T18:57:59;5.17;;;3.00;;
41275;SDS011;27010;47.718;12.912;2022-12-11T19:01:08;4.50;;;2.80;;
41275;SDS011;27010;47.718;12.912;2022-12-11T19:04:14;4.70;;;3.00;;
41275;SDS011;27010;47.718;12.912;2022-12-11T19:07:17;4.63;;;3.00;;
41275;SDS011;27010;47.718;12.912;2022-12-11T19:10:23;4.57;;;3.13;;
41275;SDS011;27010;47.718;12.912;2022-12-11T19:13:25;4.03;;;2.90;;
41275;SDS011;27010;47.718;12.912;2022-12-11T19:16:29;4.97;;;3.07;;
41275;SDS011;27010;47.718;12.912;2022-12-11T19:19:36;4.40;;;2.80;;